createdAt,value
2018-05-23T00:00:51.066Z,60.55
2018-05-23T00:03:19.492Z,63.51
2018-05-23T00:05:47.979Z,62.40
2018-05-23T00:08:16.494Z,62.14
2018-05-23T00:10:44.856Z,62.09
2018-05-23T00:13:13.200Z,62.39
2018-05-23T00:15:41.684Z,63.17
2018-05-23T00:18:10.037Z,61.97
2018-05-23T00:20:38.474Z,61.26
2018-05-23T00:23:06.855Z,63.48
2018-05-23T00:25:35.259Z,63.55
2018-05-23T00:28:03.630Z,62.29
2018-05-23T00:30:31.992Z,61.99
2018-05-23T00:33:00.413Z,61.19
2018-05-23T00:35:28.797Z,60.47
2018-05-23T00:37:57.165Z,60.13
2018-05-23T00:40:25.509Z,62.07
2018-05-23T00:42:53.993Z,61.46
2018-05-23T00:45:22.370Z,62.31
2018-05-23T00:47:50.785Z,61.86
2018-05-23T00:50:19.284Z,65.03
2018-05-23T00:52:47.597Z,63.44
2018-05-23T00:55:27.745Z,61.34
2018-05-23T00:57:56.185Z,61.24
2018-05-23T01:00:24.568Z,63.94
2018-05-23T01:02:52.971Z,62.60
2018-05-23T01:05:21.430Z,61.89
2018-05-23T01:07:49.888Z,62.26
2018-05-23T01:10:18.248Z,61.64
2018-05-23T01:12:46.618Z,61.03
2018-05-23T01:15:14.989Z,62.00
2018-05-23T01:17:43.459Z,61.21
2018-05-23T01:20:11.820Z,61.81
2018-05-23T01:22:40.208Z,63.09
2018-05-23T01:25:08.730Z,62.94
2018-05-23T01:27:37.124Z,62.76
2018-05-23T01:30:05.544Z,62.31
2018-05-23T01:32:33.964Z,62.39
2018-05-23T01:35:02.388Z,64.74
2018-05-23T01:37:30.863Z,63.25
2018-05-23T01:39:59.274Z,63.48
2018-05-23T01:42:27.682Z,63.73
2018-05-23T01:44:56.105Z,62.17
2018-05-23T01:47:24.477Z,61.51
2018-05-23T01:49:52.880Z,62.09
2018-05-23T01:52:21.275Z,61.88
2018-05-23T01:54:49.673Z,61.46
2018-05-23T01:57:18.096Z,62.46
2018-05-23T01:59:46.529Z,62.29
2018-05-23T02:02:15.029Z,62.00
2018-05-23T02:04:43.443Z,62.76
2018-05-23T02:07:11.805Z,62.63
2018-05-23T02:09:40.172Z,61.59
2018-05-23T02:12:08.569Z,62.85
2018-05-23T02:14:37.073Z,62.32
2018-05-23T02:17:05.491Z,61.79
2018-05-23T02:19:33.847Z,61.78
2018-05-23T02:22:02.269Z,61.15
2018-05-23T02:24:30.652Z,60.72
2018-05-23T02:26:59.076Z,61.60
2018-05-23T02:29:27.438Z,61.12
2018-05-23T02:31:55.813Z,61.17
2018-05-23T02:34:24.282Z,63.30
2018-05-23T02:36:52.659Z,62.01
2018-05-23T02:39:21.174Z,62.98
2018-05-23T02:41:49.538Z,62.15
2018-05-23T02:44:17.945Z,62.55
2018-05-23T02:46:46.320Z,63.17
2018-05-23T02:49:14.695Z,62.48
2018-05-23T02:51:43.056Z,61.83
2018-05-23T02:54:11.481Z,61.51
2018-05-23T02:56:39.863Z,63.10
2018-05-23T02:59:08.270Z,63.21
2018-05-23T03:01:36.648Z,62.63
2018-05-23T03:04:05.028Z,62.74
2018-05-23T03:06:33.397Z,63.64
2018-05-23T03:09:01.760Z,61.59
2018-05-23T03:11:30.114Z,62.54
2018-05-23T03:13:58.475Z,61.74
2018-05-23T03:16:26.859Z,61.61
2018-05-23T03:18:55.207Z,62.11
2018-05-23T03:21:23.665Z,63.54
2018-05-23T03:23:52.023Z,63.87
2018-05-23T03:26:20.564Z,63.23
2018-05-23T03:28:48.993Z,63.50
2018-05-23T03:31:17.368Z,61.71
2018-05-23T03:33:45.746Z,62.52
2018-05-23T03:36:14.133Z,62.86
2018-05-23T03:38:42.574Z,62.06
2018-05-23T03:41:11.057Z,63.55
2018-05-23T03:43:39.445Z,60.17
2018-05-23T03:46:07.857Z,62.10
2018-05-23T03:48:36.253Z,61.87
2018-05-23T03:51:04.652Z,61.15
2018-05-23T03:53:33.008Z,61.02
2018-05-23T03:56:01.438Z,61.44
2018-05-23T03:58:29.918Z,60.33
2018-05-23T04:01:10.009Z,61.12
2018-05-23T04:03:51.119Z,61.27
2018-05-23T04:09:21.348Z,59.59
2018-05-23T04:11:49.789Z,61.32
2018-05-23T04:14:18.312Z,61.87
2018-05-23T04:16:46.719Z,59.55
2018-05-23T04:19:15.183Z,59.33
2018-05-23T04:21:43.636Z,60.13
2018-05-23T04:24:11.979Z,61.77
2018-05-23T04:26:40.490Z,60.17
2018-05-23T04:29:08.966Z,59.26
2018-05-23T04:31:37.383Z,59.79
2018-05-23T04:34:05.752Z,60.53
2018-05-23T04:36:34.141Z,59.00
2018-05-23T04:39:02.676Z,60.27
2018-05-23T04:41:31.169Z,60.46
2018-05-23T04:43:59.552Z,59.22
2018-05-23T04:46:28.016Z,58.73
2018-05-23T04:48:56.489Z,59.07
2018-05-23T04:51:24.905Z,57.99
2018-05-23T04:53:53.251Z,60.59
2018-05-23T04:56:21.791Z,58.14
2018-05-23T04:58:50.293Z,59.08
2018-05-23T05:01:18.856Z,60.29
2018-05-23T05:03:47.339Z,59.71
2018-05-23T05:06:15.747Z,58.62
2018-05-23T05:08:44.148Z,59.78
2018-05-23T05:11:12.614Z,58.50
2018-05-23T05:13:41.045Z,60.43
2018-05-23T05:16:09.450Z,61.00
2018-05-23T05:18:37.926Z,58.26
2018-05-23T05:21:06.340Z,59.03
2018-05-23T05:23:34.767Z,59.48
2018-05-23T05:26:03.480Z,60.50
2018-05-23T05:28:31.882Z,60.53
2018-05-23T05:31:00.356Z,60.05
2018-05-23T05:33:28.858Z,60.44
2018-05-23T05:35:57.286Z,60.39
2018-05-23T05:38:25.668Z,59.34
2018-05-23T05:40:54.190Z,61.04
2018-05-23T05:43:22.892Z,61.78
2018-05-23T05:45:51.262Z,61.72
2018-05-23T05:48:19.671Z,60.21
2018-05-23T05:50:48.085Z,57.56
2018-05-23T05:53:17.447Z,59.06
2018-05-23T05:55:45.810Z,59.13
2018-05-23T05:58:14.241Z,61.41
2018-05-23T06:00:42.724Z,61.86
2018-05-23T06:03:11.431Z,61.67
2018-05-23T06:05:39.942Z,61.44
2018-05-23T06:08:08.318Z,60.70
2018-05-23T06:10:36.843Z,58.24
2018-05-23T06:13:05.280Z,57.41
2018-05-23T06:15:34.688Z,57.19
2018-05-23T06:18:03.127Z,57.73
2018-05-23T06:20:31.634Z,59.70
2018-05-23T06:23:01.166Z,58.46
2018-05-23T06:25:29.595Z,56.39
2018-05-23T06:27:58.114Z,56.48
2018-05-23T06:30:26.759Z,56.89
2018-05-23T06:32:55.077Z,57.09
2018-05-23T06:35:23.629Z,57.74
2018-05-23T06:37:52.301Z,57.92
2018-05-23T06:40:20.838Z,56.97
2018-05-23T06:42:49.200Z,55.86
2018-05-23T06:45:17.586Z,56.69
2018-05-23T06:47:46.010Z,57.74
2018-05-23T06:50:14.415Z,56.94
2018-05-23T06:52:42.801Z,57.00
2018-05-23T06:55:11.203Z,58.60
2018-05-23T06:57:39.705Z,57.30
2018-05-23T07:00:08.147Z,57.05
2018-05-23T07:02:36.598Z,55.88
2018-05-23T07:05:05.022Z,58.29
2018-05-23T07:07:33.389Z,55.76
2018-05-23T07:10:01.844Z,55.86
2018-05-23T07:12:30.235Z,55.04
2018-05-23T07:14:58.657Z,55.73
2018-05-23T07:17:27.099Z,56.35
2018-05-23T07:19:55.494Z,56.80
2018-05-23T07:22:24.035Z,56.68
2018-05-23T07:24:52.463Z,54.61
2018-05-23T07:27:20.866Z,58.34
2018-05-23T07:29:49.270Z,59.26
2018-05-23T07:32:17.779Z,54.85
2018-05-23T07:34:46.246Z,57.22
2018-05-23T07:37:14.747Z,55.26
2018-05-23T07:39:43.178Z,53.83
2018-05-23T07:42:11.639Z,55.61
2018-05-23T07:44:40.143Z,55.28
2018-05-23T07:47:08.637Z,57.30
2018-05-23T07:49:37.226Z,55.82
2018-05-23T07:52:06.665Z,54.54
2018-05-23T07:54:35.169Z,56.16
2018-05-23T07:57:03.711Z,56.18
2018-05-23T07:59:32.351Z,56.27
2018-05-23T08:02:00.785Z,54.53
2018-05-23T08:04:29.271Z,53.59
2018-05-23T08:06:57.822Z,55.49
2018-05-23T08:09:26.294Z,56.93
2018-05-23T08:11:54.930Z,59.91
2018-05-23T08:14:23.350Z,58.24
2018-05-23T08:16:51.755Z,55.50
2018-05-23T08:19:20.198Z,55.02
2018-05-23T08:21:48.567Z,56.09
2018-05-23T08:24:17.183Z,56.96
2018-05-23T08:26:45.599Z,55.47
2018-05-23T08:29:14.133Z,55.43
2018-05-23T08:31:42.789Z,55.89
2018-05-23T08:34:11.181Z,57.53
2018-05-23T08:36:39.656Z,59.05
2018-05-23T08:39:08.152Z,59.22
2018-05-23T08:41:36.534Z,59.32
2018-05-23T08:44:04.953Z,57.67
2018-05-23T08:46:33.537Z,59.36
2018-05-23T08:49:01.966Z,56.62
2018-05-23T08:51:30.536Z,57.65
2018-05-23T08:53:59.055Z,57.48
2018-05-23T08:56:27.503Z,57.44
2018-05-23T08:58:55.988Z,56.11
2018-05-23T09:01:24.486Z,55.21
2018-05-23T09:03:54.213Z,54.96
2018-05-23T09:06:22.819Z,56.79
2018-05-23T09:08:51.208Z,56.00
2018-05-23T09:11:19.606Z,55.51
2018-05-23T09:13:48.201Z,51.69
2018-05-23T09:16:16.573Z,53.78
2018-05-23T09:18:44.986Z,55.37
2018-05-23T09:21:13.449Z,55.53
2018-05-23T09:23:42.042Z,53.35
2018-05-23T09:26:12.483Z,52.26
2018-05-23T09:28:40.988Z,50.43
2018-05-23T09:31:09.522Z,52.64
2018-05-23T09:33:38.084Z,49.65
2018-05-23T09:36:06.681Z,50.39
2018-05-23T09:38:35.318Z,49.81
2018-05-23T09:41:03.903Z,49.67
2018-05-23T09:43:32.431Z,47.24
2018-05-23T09:46:00.895Z,46.10
2018-05-23T09:48:29.413Z,49.24
2018-05-23T09:50:57.906Z,48.93
2018-05-23T09:53:26.340Z,45.95
2018-05-23T09:55:54.925Z,45.11
2018-05-23T09:58:23.374Z,40.72
2018-05-23T10:00:51.872Z,39.75
2018-05-23T10:03:20.400Z,40.09
2018-05-23T10:05:49.038Z,40.71
2018-05-23T10:08:18.655Z,41.08
2018-05-23T10:10:47.274Z,38.57
2018-05-23T10:13:16.063Z,39.53
2018-05-23T10:15:44.619Z,42.11
2018-05-23T10:18:13.262Z,40.02
2018-05-23T10:20:41.803Z,38.53
2018-05-23T10:23:10.476Z,38.75
2018-05-23T10:25:39.046Z,39.13
2018-05-23T10:28:07.839Z,38.31
2018-05-23T10:30:36.393Z,37.35
2018-05-23T10:33:04.958Z,38.38
2018-05-23T10:35:33.391Z,39.04
2018-05-23T10:38:02.897Z,38.01
2018-05-23T10:40:31.524Z,37.29
2018-05-23T10:43:00.007Z,37.82
2018-05-23T10:45:28.613Z,37.87
2018-05-23T10:47:57.200Z,39.17
2018-05-23T10:50:25.662Z,36.96
2018-05-23T10:52:54.070Z,37.36
2018-05-23T10:55:22.709Z,37.82
2018-05-23T10:57:51.249Z,41.46
2018-05-23T11:00:19.800Z,40.31
2018-05-23T11:02:49.121Z,40.31
2018-05-23T11:05:17.808Z,40.74
2018-05-23T11:07:46.246Z,40.50
2018-05-23T11:10:14.730Z,39.32
2018-05-23T11:12:43.233Z,38.16
2018-05-23T11:15:11.988Z,37.29
2018-05-23T11:17:40.451Z,35.04
2018-05-23T11:20:09.405Z,34.24
2018-05-23T11:22:37.913Z,34.20
2018-05-23T11:25:06.320Z,34.85
2018-05-23T11:27:34.787Z,32.90
2018-05-23T11:30:03.236Z,32.75
2018-05-23T11:32:32.275Z,34.61
2018-05-23T11:35:00.887Z,34.27
2018-05-23T11:37:29.637Z,33.51
2018-05-23T11:39:58.089Z,34.00
2018-05-23T11:42:26.573Z,33.95
2018-05-23T11:44:55.014Z,35.34
2018-05-23T11:47:23.625Z,34.74
2018-05-23T11:49:52.061Z,34.62
2018-05-23T11:52:33.442Z,35.22
2018-05-23T11:55:02.804Z,37.98
2018-05-23T11:57:31.307Z,35.07
2018-05-23T11:59:59.951Z,37.43
2018-05-23T12:02:28.643Z,35.31
2018-05-23T12:04:57.160Z,37.56
2018-05-23T12:07:25.838Z,34.76
2018-05-23T12:09:54.414Z,36.55
2018-05-23T12:12:23.253Z,34.24
2018-05-23T12:14:51.734Z,33.71
2018-05-23T12:17:20.217Z,36.11
2018-05-23T12:19:48.703Z,36.81
2018-05-23T12:22:17.319Z,37.95
2018-05-23T12:24:45.863Z,36.28
2018-05-23T12:27:14.598Z,36.64
2018-05-23T12:29:43.474Z,37.49
2018-05-23T12:32:12.013Z,37.76
2018-05-23T12:34:40.639Z,35.38
2018-05-23T12:37:10.550Z,36.67
2018-05-23T12:39:39.981Z,36.21
2018-05-23T12:42:08.656Z,34.37
2018-05-23T12:44:38.123Z,34.74
2018-05-23T12:47:06.586Z,34.92
2018-05-23T12:49:35.156Z,35.48
2018-05-23T12:52:03.651Z,33.28
2018-05-23T12:54:32.196Z,31.07
2018-05-23T12:57:00.667Z,33.54
2018-05-23T12:59:29.156Z,32.52
2018-05-23T13:01:57.555Z,32.22
2018-05-23T13:04:26.200Z,30.14
2018-05-23T13:06:55.123Z,31.13
2018-05-23T13:09:23.743Z,29.95
2018-05-23T13:11:53.013Z,29.05
2018-05-23T13:14:22.011Z,30.48
2018-05-23T13:16:50.559Z,31.44
2018-05-23T13:19:19.109Z,30.21
2018-05-23T13:21:47.643Z,29.28
2018-05-23T13:24:16.090Z,29.58
2018-05-23T13:26:44.566Z,28.05
2018-05-23T13:29:13.009Z,28.48
2018-05-23T13:31:41.652Z,27.62
2018-05-23T13:34:10.083Z,28.29
2018-05-23T13:36:38.528Z,27.62
2018-05-23T13:39:07.030Z,27.61
2018-05-23T13:41:35.495Z,27.43
2018-05-23T13:44:04.090Z,27.68
2018-05-23T13:46:32.521Z,26.80
2018-05-23T13:49:01.025Z,25.65
2018-05-23T13:51:29.457Z,27.14
2018-05-23T13:53:58.047Z,27.11
2018-05-23T13:56:26.569Z,27.23
2018-05-23T13:58:54.985Z,27.02
2018-05-23T14:01:23.496Z,26.69
2018-05-23T14:03:51.965Z,26.23
2018-05-23T14:06:20.424Z,26.57
2018-05-23T14:08:49.145Z,25.50
2018-05-23T14:11:17.691Z,25.66
2018-05-23T14:13:46.659Z,25.29
2018-05-23T14:16:15.345Z,26.32
2018-05-23T14:18:44.548Z,25.66
2018-05-23T14:21:13.352Z,26.81
2018-05-23T14:23:41.758Z,27.31
2018-05-23T14:26:10.425Z,27.96
2018-05-23T14:28:38.842Z,28.47
2018-05-23T14:31:07.389Z,28.01
2018-05-23T14:33:36.353Z,27.96
2018-05-23T14:36:05.334Z,29.21
2018-05-23T14:38:33.975Z,27.90
2018-05-23T14:41:03.595Z,27.44
2018-05-23T14:43:32.610Z,28.26
2018-05-23T14:46:01.332Z,27.33
2018-05-23T14:48:30.005Z,28.31
2018-05-23T14:50:58.538Z,29.09
2018-05-23T14:53:27.051Z,27.23
2018-05-23T14:55:56.658Z,28.34
2018-05-23T14:58:25.488Z,28.38
2018-05-23T15:00:54.103Z,28.29
2018-05-23T15:03:22.676Z,27.54
2018-05-23T15:05:51.450Z,28.36
2018-05-23T15:08:20.331Z,28.23
2018-05-23T15:10:49.040Z,28.22
2018-05-23T15:13:17.599Z,27.89
2018-05-23T15:15:46.507Z,27.59
2018-05-23T15:18:15.271Z,27.80
2018-05-23T15:20:44.323Z,27.33
2018-05-23T15:23:12.830Z,27.20
2018-05-23T15:25:41.433Z,26.15
2018-05-23T15:28:10.077Z,25.97
2018-05-23T15:30:38.818Z,26.16
2018-05-23T15:33:07.863Z,26.55
2018-05-23T15:35:36.571Z,25.62
2018-05-23T15:38:05.874Z,26.05
2018-05-23T15:40:34.705Z,26.78
2018-05-23T15:43:03.465Z,25.81
2018-05-23T15:45:32.427Z,25.99
2018-05-23T15:48:00.908Z,26.27
2018-05-23T15:50:29.549Z,26.70
2018-05-23T15:52:58.161Z,26.90
2018-05-23T15:55:27.336Z,27.67
2018-05-23T15:57:55.995Z,26.61
2018-05-23T16:00:24.471Z,26.50
2018-05-23T16:02:53.056Z,25.40
2018-05-23T16:05:21.385Z,25.74
2018-05-23T16:07:49.933Z,25.23
2018-05-23T16:10:18.430Z,24.23
2018-05-23T16:12:46.878Z,24.35
2018-05-23T16:15:15.328Z,24.10
2018-05-23T16:17:43.773Z,23.69
2018-05-23T16:20:12.338Z,23.96
2018-05-23T16:22:40.930Z,24.05
2018-05-23T16:25:09.311Z,24.32
2018-05-23T16:27:37.818Z,24.74
2018-05-23T16:30:06.169Z,24.57
2018-05-23T16:32:34.734Z,24.40
2018-05-23T16:35:03.298Z,24.68
2018-05-23T16:37:31.801Z,24.77
2018-05-23T16:40:00.317Z,26.18
2018-05-23T16:42:29.169Z,27.81
2018-05-23T16:44:58.804Z,27.81
2018-05-23T16:47:27.207Z,29.20
2018-05-23T16:49:55.593Z,29.28
2018-05-23T16:52:24.022Z,29.25
2018-05-23T16:54:52.478Z,29.04
2018-05-23T16:57:21.078Z,28.47
2018-05-23T16:59:49.560Z,29.20
2018-05-23T17:02:18.123Z,29.94
2018-05-23T17:04:46.617Z,30.94
2018-05-23T17:07:15.064Z,29.84
2018-05-23T17:09:43.540Z,28.93
2018-05-23T17:12:12.136Z,29.75
2018-05-23T17:14:41.395Z,28.52
2018-05-23T17:17:10.098Z,29.49
2018-05-23T17:19:38.566Z,30.65
2018-05-23T17:22:07.178Z,30.80
2018-05-23T17:24:35.776Z,30.45
2018-05-23T17:27:04.272Z,29.61
2018-05-23T17:29:33.361Z,30.94
2018-05-23T17:32:02.052Z,29.87
2018-05-23T17:34:30.500Z,29.11
2018-05-23T17:36:58.958Z,29.74
2018-05-23T17:39:27.484Z,30.02
2018-05-23T17:41:56.807Z,29.71
2018-05-23T17:44:25.551Z,29.80
2018-05-23T17:46:53.963Z,29.94
2018-05-23T17:49:22.458Z,29.76
2018-05-23T17:51:50.933Z,29.96
2018-05-23T17:54:19.581Z,31.12
2018-05-23T17:56:48.076Z,31.29
2018-05-23T17:59:17.390Z,31.83
2018-05-23T18:01:45.850Z,31.68
2018-05-23T18:04:15.268Z,31.04
2018-05-23T18:06:43.990Z,31.42
2018-05-23T18:09:12.565Z,31.70
2018-05-23T18:11:41.328Z,31.21
2018-05-23T18:14:09.750Z,31.41
2018-05-23T18:16:38.314Z,29.73
2018-05-23T18:19:07.120Z,30.08
2018-05-23T18:21:35.693Z,29.89
2018-05-23T18:24:04.630Z,29.61
2018-05-23T18:26:33.178Z,29.67
2018-05-23T18:29:01.667Z,30.59
2018-05-23T18:31:30.325Z,29.49
2018-05-23T18:33:59.340Z,30.16
2018-05-23T18:36:27.999Z,30.39
2018-05-23T18:38:56.656Z,30.55
2018-05-23T18:41:25.393Z,30.55
2018-05-23T18:43:55.218Z,30.64
2018-05-23T18:46:24.422Z,31.07
2018-05-23T18:48:53.608Z,31.24
2018-05-23T18:51:22.612Z,31.20
2018-05-23T18:53:51.202Z,32.46
2018-05-23T18:56:19.632Z,31.09
2018-05-23T18:58:48.112Z,31.94
2018-05-23T19:01:16.896Z,32.34
2018-05-23T19:03:45.877Z,32.90
2018-05-23T19:06:14.696Z,33.46
2018-05-23T19:08:43.608Z,32.30
2018-05-23T19:11:12.767Z,33.25
2018-05-23T19:13:41.272Z,33.40
2018-05-23T19:16:10.490Z,32.94
2018-05-23T19:18:39.039Z,34.47
2018-05-23T19:21:07.403Z,33.46
2018-05-23T19:23:36.145Z,33.12
2018-05-23T19:28:50.959Z,34.78
2018-05-23T19:31:19.612Z,34.61
2018-05-23T19:33:48.444Z,34.59
2018-05-23T19:36:16.936Z,33.90
2018-05-23T19:38:45.451Z,34.16
2018-05-23T19:41:13.836Z,34.04
2018-05-23T19:43:42.330Z,34.37
2018-05-23T19:46:10.750Z,33.91
2018-05-23T19:48:39.137Z,34.36
2018-05-23T19:51:07.557Z,34.08
2018-05-23T19:53:36.109Z,34.88
2018-05-23T19:56:04.567Z,34.89
2018-05-23T19:58:32.963Z,34.92
2018-05-23T20:01:02.289Z,34.91
2018-05-23T20:03:31.192Z,36.02
2018-05-23T20:05:59.644Z,35.79
2018-05-23T20:08:28.099Z,36.88
2018-05-23T20:10:56.567Z,36.21
2018-05-23T20:13:25.445Z,36.87
2018-05-23T20:15:53.993Z,35.78
2018-05-23T20:18:22.555Z,36.80
2018-05-23T20:20:51.208Z,37.20
2018-05-23T20:23:20.335Z,36.19
2018-05-23T20:25:48.808Z,36.76
2018-05-23T20:28:17.250Z,36.30
2018-05-23T20:30:45.648Z,36.00
2018-05-23T20:33:14.030Z,35.65
2018-05-23T20:35:43.309Z,36.60
2018-05-23T20:38:11.885Z,36.56
2018-05-23T20:40:40.246Z,35.78
2018-05-23T20:43:08.715Z,36.65
2018-05-23T20:45:37.078Z,35.95
2018-05-23T20:48:05.441Z,37.02
2018-05-23T20:50:33.884Z,36.70
2018-05-23T20:53:02.273Z,36.18
2018-05-23T20:55:30.718Z,37.39
2018-05-23T20:57:59.144Z,38.14
2018-05-23T21:00:27.561Z,37.07
2018-05-23T21:02:55.975Z,37.20
2018-05-23T21:05:24.544Z,37.12
2018-05-23T21:07:52.801Z,36.86
2018-05-23T21:10:21.177Z,37.52
2018-05-23T21:12:49.547Z,37.98
2018-05-23T21:15:17.990Z,37.23
2018-05-23T21:17:46.371Z,37.79
2018-05-23T21:20:14.743Z,37.97
2018-05-23T21:22:43.107Z,38.26
2018-05-23T21:25:11.619Z,38.55
2018-05-23T21:27:39.973Z,38.93
2018-05-23T21:30:08.572Z,39.18
2018-05-23T21:32:37.062Z,39.00
2018-05-23T21:35:05.416Z,38.59
2018-05-23T21:37:33.893Z,38.52
2018-05-23T21:40:02.272Z,39.99
2018-05-23T21:42:30.678Z,39.91
2018-05-23T21:44:59.091Z,40.32
2018-05-23T21:47:27.465Z,40.09
2018-05-23T21:49:55.836Z,41.38
2018-05-23T21:52:24.372Z,40.05
2018-05-23T21:54:52.881Z,40.23
2018-05-23T21:57:21.242Z,40.69
2018-05-23T21:59:49.662Z,41.06
2018-05-23T22:02:18.032Z,41.23
2018-05-23T22:04:46.453Z,41.58
2018-05-23T22:07:14.861Z,41.27
2018-05-23T22:09:43.230Z,42.03
2018-05-23T22:12:11.606Z,42.77
2018-05-23T22:14:39.956Z,43.51
2018-05-23T22:17:08.296Z,43.94
2018-05-23T22:19:36.690Z,42.86
2018-05-23T22:22:05.033Z,44.63
2018-05-23T22:24:33.431Z,44.55
2018-05-23T22:27:01.813Z,43.99
2018-05-23T22:29:30.246Z,45.04
2018-05-23T22:31:58.699Z,44.96
2018-05-23T22:34:27.104Z,43.49
2018-05-23T22:36:55.606Z,43.84
2018-05-23T22:39:23.975Z,43.47
2018-05-23T22:41:52.359Z,43.42
2018-05-23T22:44:20.769Z,43.28
2018-05-23T22:46:49.134Z,44.31
2018-05-23T22:49:17.560Z,43.91
2018-05-23T22:51:45.921Z,43.19
2018-05-23T22:54:14.300Z,43.80
2018-05-23T22:56:42.634Z,43.63
2018-05-23T22:59:11.028Z,43.26
2018-05-23T23:01:39.470Z,42.02
2018-05-23T23:04:07.837Z,42.57
2018-05-23T23:06:36.225Z,42.19
2018-05-23T23:09:04.586Z,40.90
2018-05-23T23:11:32.947Z,42.11
2018-05-23T23:14:01.351Z,41.69
2018-05-23T23:16:29.735Z,39.61
2018-05-23T23:18:58.167Z,40.93
2018-05-23T23:21:26.464Z,41.50
2018-05-23T23:23:54.806Z,41.56
2018-05-23T23:26:23.239Z,42.47
2018-05-23T23:28:51.617Z,42.26
2018-05-23T23:31:19.957Z,42.79
2018-05-23T23:33:48.293Z,42.25
2018-05-23T23:36:16.734Z,43.59
2018-05-23T23:38:45.192Z,41.91
2018-05-23T23:41:13.590Z,44.21
2018-05-23T23:43:41.960Z,43.48
2018-05-23T23:46:10.322Z,45.46
2018-05-23T23:48:38.684Z,44.67
2018-05-23T23:51:07.037Z,46.07
2018-05-23T23:53:35.380Z,45.43
2018-05-23T23:56:03.740Z,46.53
2018-05-23T23:58:32.138Z,45.17
